Captain Jack — WDC3898 — position and weather

sailwx.info

Track history (hours):
 
Tides and Currents Weather Stations Pressure Air Temp Water Temp Dewpoint Dewpoint Depression Visibility Wind Speed Wind Dir Waves Ship Positions

Captain Jack

Owner: Bonvillian Marine Service, Buras, LA. More information available from US FCC via Universal Licensing System and Coast Guard Vessel Documentation Center.

Last reported at 2017-Jul-25 19:03 UTC. Time now 2017-Nov-22 20:31 UTC.
Position N 29°34' W 090°28'.
Warning: this ship's position is months out of date.

Length 15 m; draft 1 m.

Type: Tug. MMSI: 367015950.

Date/timePositionNaut miles runAvg speedWind from/ knotsBaromVisibWave heightAir tempDewpointWater temp
2017-Jul-25 19:03N 29°34' W 090°28'0 9.3
2017-Jul-25 19:00N 29°34' W 090°29'5 9.2
2017-Jul-25 18:30N 29°34' W 090°34'3 6.5
2017-Jul-25 18:00N 29°35' W 090°38'4 7.7
2017-Jul-25 17:30N 29°37' W 090°42'3 6.4
2017-Jul-25 17:00N 29°34' W 090°43'4 8.2
2017-Jul-25 16:30N 29°32' W 090°48'7 1.2
2017-Jul-25 10:44N 29°34' W 090°55'2 4.8
2017-Jul-25 10:23N 29°33' W 090°54'2 4.6
2017-Jul-25 09:54N 29°32' W 090°51'2 4.6
2017-Jul-25 09:29N 29°32' W 090°49'2 4.4
2017-Jul-25 09:00N 29°32' W 090°47'2 3.8
2017-Jul-25 08:30N 29°33' W 090°45'2 3.8
2017-Jul-25 08:00N 29°34' W 090°43'2 3.9
2017-Jul-25 07:30N 29°36' W 090°43'2 3.0
2017-Jul-25 07:00N 29°36' W 090°41'2 4.6
2017-Jul-25 06:30N 29°35' W 090°38'3 4.4
2017-Jul-25 05:50N 29°35' W 090°35'  
2017-Jul-18 05:16N 29°34' W 090°30'1 4.9
2017-Jul-18 05:00N 29°34' W 090°31'2 4.8
2017-Jul-18 04:30N 29°34' W 090°34'2 4.7
2017-Jul-18 04:00N 29°35' W 090°37'2 4.1
2017-Jul-18 03:30N 29°36' W 090°39'2 4.7
2017-Jul-18 03:00N 29°36' W 090°41'2 3.0
2017-Jul-18 02:30N 29°36' W 090°43'1 2.7
2017-Jul-18 02:00N 29°34' W 090°43'0 0.1
2017-Jul-18 01:30N 29°34' W 090°43'2 4.0
2017-Jul-18 01:00N 29°33' W 090°45'2 4.4
2017-Jul-18 00:30N 29°32' W 090°47'3 0.4
2017-Jul-17 15:56N 29°32' W 090°51'3 8.1
2017-Jul-17 15:30N 29°32' W 090°47'3 6.5
2017-Jul-17 15:00N 29°34' W 090°44'2 4.9
2017-Jul-17 14:30N 29°36' W 090°43'2 4.2
2017-Jul-17 14:00N 29°36' W 090°40'3 6.9
2017-Jul-17 13:30N 29°35' W 090°37'3 7.0
2017-Jul-17 13:00N 29°34' W 090°33'  
Track history (hours):
 
Tides and Currents Weather Stations Pressure Air Temp Water Temp Dewpoint Dewpoint Depression Visibility Wind Speed Wind Dir Waves Ship Positions

Captain Jack

Owner: Bonvillian Marine Service, Buras, LA. More information available from US FCC via Universal Licensing System and Coast Guard Vessel Documentation Center.

Last reported at 2017-Jul-25 19:03 UTC. Time now 2017-Nov-22 20:31 UTC.
Position N 29°34' W 090°28'.
Warning: this ship's position is months out of date.

Length 15 m; draft 1 m.

Type: Tug. MMSI: 367015950.

Date/timePositionNaut miles runAvg speedWind from/ knotsBaromVisibWave heightAir tempDewpointWater temp
2017-Jul-25 19:03N 29°34' W 090°28'0 9.3
2017-Jul-25 19:00N 29°34' W 090°29'5 9.2
2017-Jul-25 18:30N 29°34' W 090°34'3 6.5
2017-Jul-25 18:00N 29°35' W 090°38'4 7.7
2017-Jul-25 17:30N 29°37' W 090°42'3 6.4
2017-Jul-25 17:00N 29°34' W 090°43'4 8.2
2017-Jul-25 16:30N 29°32' W 090°48'7 1.2
2017-Jul-25 10:44N 29°34' W 090°55'2 4.8
2017-Jul-25 10:23N 29°33' W 090°54'2 4.6
2017-Jul-25 09:54N 29°32' W 090°51'2 4.6
2017-Jul-25 09:29N 29°32' W 090°49'2 4.4
2017-Jul-25 09:00N 29°32' W 090°47'2 3.8
2017-Jul-25 08:30N 29°33' W 090°45'2 3.8
2017-Jul-25 08:00N 29°34' W 090°43'2 3.9
2017-Jul-25 07:30N 29°36' W 090°43'2 3.0
2017-Jul-25 07:00N 29°36' W 090°41'2 4.6
2017-Jul-25 06:30N 29°35' W 090°38'3 4.4
2017-Jul-25 05:50N 29°35' W 090°35'  
2017-Jul-18 05:16N 29°34' W 090°30'1 4.9
2017-Jul-18 05:00N 29°34' W 090°31'2 4.8
2017-Jul-18 04:30N 29°34' W 090°34'2 4.7
2017-Jul-18 04:00N 29°35' W 090°37'2 4.1
2017-Jul-18 03:30N 29°36' W 090°39'2 4.7
2017-Jul-18 03:00N 29°36' W 090°41'2 3.0
2017-Jul-18 02:30N 29°36' W 090°43'1 2.7
2017-Jul-18 02:00N 29°34' W 090°43'0 0.1
2017-Jul-18 01:30N 29°34' W 090°43'2 4.0
2017-Jul-18 01:00N 29°33' W 090°45'2 4.4
2017-Jul-18 00:30N 29°32' W 090°47'3 0.4
2017-Jul-17 15:56N 29°32' W 090°51'3 8.1
2017-Jul-17 15:30N 29°32' W 090°47'3 6.5
2017-Jul-17 15:00N 29°34' W 090°44'2 4.9
2017-Jul-17 14:30N 29°36' W 090°43'2 4.2
2017-Jul-17 14:00N 29°36' W 090°40'3 6.9
2017-Jul-17 13:30N 29°35' W 090°37'3 7.0
2017-Jul-17 13:00N 29°34' W 090°33'  

Dump ship's entire track history